Kings Creek, North Carolina
Current Conditions -  °F | °C
As of 10:35 PM on Saturday 22 Nov 2014 (Local Time) from KMRN Reporting Station
Overcast Overcast  
Wind Chill: 40°   Ceiling: 4200
Heat Index: 40°   Visibility: 10mi
Dew Point: 25°   Wind: 0mph
Humidity: 55%   Direction: NA
Pressure: 30.36"   Gusts: NA
Location:  35.9726°N, 81.5331°W
Report Text: KMRN 230335Z AUTO 00000KT 10SM OVC042 05/M04 A3036 RMK AO2 T00451038
Loading
Personal Weather Stations






























Interactive Weather Map New forecast layout! Learn more

10-Day Weather Forecast

Advertisements
Track Severe Weather on mobile